createdAt,value
2019-03-11T00:00:12.134Z,75.6
2019-03-11T00:01:12.038Z,75.4
2019-03-11T00:02:11.938Z,76
2019-03-11T00:03:11.871Z,76
2019-03-11T00:04:16.680Z,76.2
2019-03-11T00:05:19.349Z,76.2
2019-03-11T00:06:19.280Z,76.8
2019-03-11T00:07:19.203Z,76.5
2019-03-11T00:08:19.092Z,76.7
2019-03-11T00:09:18.971Z,76.9
2019-03-11T00:10:18.881Z,77
2019-03-11T00:11:18.752Z,77
2019-03-11T00:12:18.656Z,77.3
2019-03-11T00:13:18.538Z,77.9
2019-03-11T00:14:18.848Z,76.4
2019-03-11T00:15:18.743Z,77.4
2019-03-11T00:16:18.627Z,77.2
2019-03-11T00:24:17.089Z,74.6
2019-03-11T00:25:16.995Z,75
2019-03-11T00:26:16.891Z,75.2
2019-03-11T00:27:16.786Z,75.2
2019-03-11T00:28:16.690Z,75.1
2019-03-11T00:29:16.579Z,75
2019-03-11T00:30:16.468Z,74.7
2019-03-11T00:31:16.370Z,74.8
2019-03-11T00:32:16.272Z,74.8
2019-03-11T00:33:16.186Z,74.9
2019-03-11T00:34:16.522Z,75
2019-03-11T00:35:16.415Z,74.8
2019-03-11T00:36:16.302Z,75.3
2019-03-11T00:37:16.204Z,75.9
2019-03-11T00:38:16.124Z,76.4
2019-03-11T00:39:16.022Z,76.3
2019-03-11T00:40:15.943Z,76.6
2019-03-11T00:41:15.856Z,75.6
2019-03-11T00:42:15.765Z,76.1
2019-03-11T00:43:15.660Z,75.9
2019-03-11T00:44:15.978Z,76.5
2019-03-11T00:45:15.872Z,76.3
2019-03-11T00:46:15.779Z,76.6
2019-03-11T00:47:15.682Z,76.3
2019-03-11T00:48:15.603Z,76.2
2019-03-11T00:49:15.493Z,76.9
2019-03-11T00:50:15.412Z,77.1
2019-03-11T00:51:15.315Z,77
2019-03-11T00:52:15.205Z,77.1
2019-03-11T00:53:15.307Z,76.8
2019-03-11T00:54:15.677Z,77.5
2019-03-11T00:55:15.585Z,77.6
2019-03-11T00:56:15.469Z,77.5
2019-03-11T00:57:15.349Z,77.1
2019-03-11T00:58:15.245Z,77.2
2019-03-11T00:59:15.213Z,76.6
2019-03-11T01:00:15.096Z,76.6
2019-03-11T01:01:14.979Z,76
2019-03-11T01:02:14.879Z,76.1
2019-03-11T01:03:14.760Z,75.7
2019-03-11T01:04:15.125Z,76
2019-03-11T01:05:15.017Z,76
2019-03-11T01:06:14.907Z,75.8
2019-03-11T01:07:14.805Z,75.7
2019-03-11T01:08:14.704Z,75.6
2019-03-11T01:09:14.593Z,75.1
2019-03-11T01:10:14.529Z,74.9
2019-03-11T01:11:14.419Z,75.3
2019-03-11T01:12:14.327Z,75.2
2019-03-11T01:13:14.271Z,74.8
2019-03-11T01:14:14.619Z,74.2
2019-03-11T01:15:14.533Z,74.1
2019-03-11T01:16:14.461Z,74
2019-03-11T01:17:14.351Z,74
2019-03-11T01:18:14.303Z,74
2019-03-11T01:19:14.271Z,74
2019-03-11T01:20:14.202Z,73.8
2019-03-11T01:21:14.095Z,74.3
2019-03-11T01:22:13.993Z,74.1
2019-03-11T01:23:13.897Z,73.6
2019-03-11T01:24:14.219Z,73.7
2019-03-11T01:25:14.106Z,74
2019-03-11T01:26:14.034Z,74.1
2019-03-11T01:27:13.935Z,74.1
2019-03-11T01:28:13.824Z,74.1
2019-03-11T01:29:13.729Z,74
2019-03-11T01:30:13.619Z,74
2019-03-11T01:31:13.527Z,73.7
2019-03-11T01:32:13.424Z,74
2019-03-11T01:33:13.382Z,73.8
2019-03-11T01:34:13.711Z,73.8
2019-03-11T01:35:13.609Z,74.1
2019-03-11T01:36:13.574Z,74.3
2019-03-11T01:37:13.509Z,74.5
2019-03-11T01:38:13.410Z,74.5
2019-03-11T01:39:13.313Z,75
2019-03-11T01:40:13.210Z,75
2019-03-11T01:41:13.166Z,75.1
2019-03-11T01:42:13.076Z,75.3
2019-03-11T01:43:12.998Z,75.6
2019-03-11T01:44:13.321Z,75.7
2019-03-11T01:45:13.204Z,75.8
2019-03-11T01:54:11.460Z,73.2
2019-03-11T01:55:11.354Z,73.9
2019-03-11T01:56:11.297Z,73.7
2019-03-11T01:57:11.190Z,73.7
2019-03-11T01:58:11.110Z,74
2019-03-11T01:59:11.046Z,74.2
2019-03-11T02:00:10.936Z,74.1
2019-03-11T02:01:10.810Z,74.5
2019-03-11T02:02:10.695Z,74.5
2019-03-11T02:03:10.602Z,74.5
2019-03-11T02:04:10.938Z,74.6
2019-03-11T02:05:10.818Z,74.7
2019-03-11T02:06:10.698Z,74.2
2019-03-11T02:07:10.602Z,74
2019-03-11T02:14:09.360Z,72.6
2019-03-11T02:15:09.246Z,73.3
2019-03-11T02:16:09.133Z,73.1
2019-03-11T02:17:09.030Z,73.5
2019-03-11T02:18:08.924Z,73.8
2019-03-11T02:19:08.847Z,74.1
2019-03-11T02:20:08.745Z,74.1
2019-03-11T02:21:08.712Z,74
2019-03-11T02:22:08.593Z,74.1
2019-03-11T02:23:08.478Z,73.9
2019-03-11T02:24:08.801Z,74
2019-03-11T02:25:08.719Z,74.4
2019-03-11T02:26:08.612Z,74.2
2019-03-11T02:27:08.524Z,74.1
2019-03-11T02:28:08.408Z,74
2019-03-11T02:29:08.350Z,74.1
2019-03-11T02:30:08.265Z,74
2019-03-11T02:31:08.185Z,74
2019-03-11T02:32:08.098Z,73.6
2019-03-11T02:33:08.020Z,73.6
2019-03-11T02:34:08.377Z,73.3
2019-03-11T02:35:08.335Z,73.3
2019-03-11T02:36:08.283Z,72.2
2019-03-11T02:44:06.882Z,69.1
2019-03-11T02:45:06.795Z,69.6
2019-03-11T02:46:06.775Z,69.6
2019-03-11T02:47:06.672Z,69.9
2019-03-11T02:48:06.580Z,69.4
2019-03-11T02:49:06.523Z,69.4
2019-03-11T02:50:06.460Z,69.5
2019-03-11T02:51:06.362Z,69.7
2019-03-11T02:52:06.282Z,69.5
2019-03-11T02:53:06.259Z,69.6
2019-03-11T02:54:06.671Z,69.1
2019-03-11T02:55:07.076Z,69.2
2019-03-11T02:56:07.161Z,69.1
2019-03-11T02:57:07.114Z,68.9
2019-03-11T02:58:07.032Z,68.7
2019-03-11T02:59:06.950Z,68.7
2019-03-11T03:00:06.873Z,69
2019-03-11T03:01:06.798Z,68.3
2019-03-11T03:02:06.729Z,69
2019-03-11T03:03:06.707Z,68.8
2019-03-11T03:04:07.054Z,68.2
2019-03-11T03:05:06.952Z,68.9
2019-03-11T03:06:06.838Z,68.7
2019-03-11T03:07:06.894Z,68.6
2019-03-11T03:08:06.805Z,68.3
2019-03-11T03:09:06.723Z,68
2019-03-11T03:10:06.622Z,67.9
2019-03-11T03:11:06.671Z,68.6
2019-03-11T03:12:06.576Z,68.3
2019-03-11T03:13:06.503Z,68.3
2019-03-11T03:14:06.887Z,67.7
2019-03-11T03:15:06.798Z,69.4
2019-03-11T03:24:05.320Z,65.2
2019-03-11T03:25:05.248Z,65.7
2019-03-11T03:26:05.178Z,65.7
2019-03-11T03:27:05.130Z,66.3
2019-03-11T03:28:05.940Z,66
2019-03-11T03:29:06.603Z,66.2
2019-03-11T03:30:06.614Z,66.6
2019-03-11T03:31:06.729Z,66.4
2019-03-11T03:32:06.690Z,66.9
2019-03-11T03:33:06.730Z,66.9
2019-03-11T03:34:07.315Z,66.7
2019-03-11T03:35:07.286Z,66.4
2019-03-11T03:44:07.512Z,64.5
2019-03-11T03:45:07.427Z,64.7
2019-03-11T03:46:20.155Z,65.2
2019-03-11T03:47:20.136Z,66.1
2019-03-11T03:48:20.355Z,65.5
2019-03-11T03:49:20.485Z,65.6
2019-03-11T03:50:20.409Z,65.6
2019-03-11T03:51:20.319Z,65.6
2019-03-11T03:52:20.241Z,66.4
2019-03-11T03:53:20.139Z,66.4
2019-03-11T03:54:20.554Z,66.9
2019-03-11T03:55:20.524Z,66.5
2019-03-11T03:56:20.425Z,66.9
2019-03-11T03:57:20.334Z,66.8
2019-03-11T03:58:20.245Z,66.9
2019-03-11T03:59:20.159Z,67.2
2019-03-11T04:00:20.131Z,67.2
2019-03-11T04:01:20.029Z,67.2
2019-03-11T04:02:19.949Z,67
2019-03-11T04:03:19.861Z,67.3
2019-03-11T04:04:20.200Z,66.9
2019-03-11T04:05:20.144Z,67.2
2019-03-11T04:06:20.050Z,67
2019-03-11T04:07:19.984Z,67.4
2019-03-11T04:08:19.907Z,67.4
2019-03-11T04:09:19.815Z,67.1
2019-03-11T04:10:19.749Z,67.3
2019-03-11T04:11:19.650Z,67.5
2019-03-11T04:12:19.570Z,67.6
2019-03-11T04:13:19.500Z,67.4
2019-03-11T04:14:19.851Z,67.3
2019-03-11T04:15:19.753Z,67.6
2019-03-11T04:16:19.655Z,67.4
2019-03-11T04:17:19.553Z,67.8
2019-03-11T04:18:19.505Z,67.9
2019-03-11T04:19:19.432Z,67.8
2019-03-11T04:20:19.469Z,67.8
2019-03-11T04:21:19.487Z,67.6
2019-03-11T04:22:19.395Z,67.4
2019-03-11T04:23:19.312Z,67.5
2019-03-11T04:24:19.682Z,67.9
2019-03-11T04:25:19.725Z,66.9
2019-03-11T04:34:18.044Z,65
2019-03-11T04:35:17.952Z,65.8
2019-03-11T04:36:17.884Z,65.9
2019-03-11T04:37:17.825Z,66.1
2019-03-11T04:38:17.756Z,66
2019-03-11T04:39:17.659Z,66
2019-03-11T04:40:17.569Z,65.9
2019-03-11T04:41:17.484Z,66.1
2019-03-11T04:42:17.395Z,66.3
2019-03-11T04:43:17.282Z,66.4
2019-03-11T04:44:17.625Z,66.3
2019-03-11T04:45:17.518Z,66.7
2019-03-11T04:46:17.397Z,66.5
2019-03-11T04:47:17.287Z,66.7
2019-03-11T04:48:17.209Z,66.7
2019-03-11T04:49:17.104Z,67
2019-03-11T04:50:17.058Z,67.1
2019-03-11T04:51:17.015Z,66.9
2019-03-11T04:52:16.931Z,66.8
2019-03-11T04:53:16.840Z,66.7
2019-03-11T04:54:17.161Z,66.9
2019-03-11T04:55:17.043Z,67.5
2019-03-11T04:56:16.949Z,67.4
2019-03-11T04:57:16.825Z,67.5
2019-03-11T04:58:16.711Z,67.1
2019-03-11T04:59:16.591Z,66.9
2019-03-11T05:00:16.485Z,67.1
2019-03-11T05:01:16.388Z,67.1
2019-03-11T05:02:16.294Z,66.9
2019-03-11T05:03:16.198Z,67.4
2019-03-11T05:04:16.599Z,67.4
2019-03-11T05:05:16.482Z,67
2019-03-11T05:06:16.383Z,67.1
2019-03-11T05:07:16.289Z,67
2019-03-11T05:08:16.205Z,66.9
2019-03-11T05:09:16.098Z,66.9
2019-03-11T05:10:17.175Z,67
2019-03-11T05:11:17.051Z,65.4
2019-03-11T05:12:16.925Z,65.4
2019-03-11T05:13:16.814Z,65.6
2019-03-11T05:14:17.161Z,65.2
2019-03-11T05:15:17.057Z,66.1
2019-03-11T05:16:17.019Z,67.2
2019-03-11T05:17:16.977Z,67.2
2019-03-11T05:18:16.869Z,67.2
2019-03-11T05:19:16.788Z,67
2019-03-11T05:20:16.742Z,66.7
2019-03-11T05:21:16.658Z,66.3
2019-03-11T05:22:16.582Z,66.4
2019-03-11T05:23:16.492Z,66.4
2019-03-11T05:24:16.856Z,65.9
2019-03-11T05:25:16.762Z,65.9
2019-03-11T05:26:16.661Z,65.5
2019-03-11T05:27:16.540Z,65.2
2019-03-11T05:28:16.429Z,64.5
2019-03-11T05:29:16.308Z,64.5
2019-03-11T05:30:16.223Z,63.7
2019-03-11T05:31:16.118Z,63.7
2019-03-11T05:32:16.006Z,63.2
2019-03-11T05:33:15.912Z,63
2019-03-11T05:34:19.197Z,62.8
2019-03-11T05:35:19.107Z,62.9
2019-03-11T05:36:19.008Z,62.5
2019-03-11T05:37:18.908Z,61.7
2019-03-11T05:38:18.782Z,61.2
2019-03-11T05:39:18.697Z,61.3
2019-03-11T05:40:18.633Z,61.7
2019-03-11T05:41:18.540Z,61.5
2019-03-11T05:42:18.422Z,61.6
2019-03-11T05:43:18.330Z,62.1
2019-03-11T05:44:18.641Z,60.4
2019-03-11T05:45:18.546Z,60.5
2019-03-11T05:46:18.496Z,60.5
2019-03-11T05:47:18.382Z,59.6
2019-03-11T05:48:18.266Z,59.7
2019-03-11T05:49:18.156Z,59.4
2019-03-11T05:50:18.076Z,59.7
2019-03-11T05:51:17.996Z,59.3
2019-03-11T05:52:17.868Z,59.7
2019-03-11T05:53:17.768Z,59.6
2019-03-11T05:54:18.098Z,59.4
2019-03-11T05:55:18.005Z,59.4
2019-03-11T06:04:16.311Z,57
2019-03-11T06:05:16.206Z,57.6
2019-03-11T06:06:16.106Z,57.2
2019-03-11T06:07:16.053Z,57.5
2019-03-11T06:08:15.938Z,57.7
2019-03-11T06:09:15.828Z,57.8
2019-03-11T06:10:15.719Z,58.8
2019-03-11T06:11:15.690Z,57.7
2019-03-11T06:12:15.588Z,58.2
2019-03-11T06:13:15.490Z,58.2
2019-03-11T06:14:15.810Z,58.1
2019-03-11T06:15:15.749Z,58.3
2019-03-11T06:16:15.677Z,57.7
2019-03-11T06:24:16.882Z,56.3
2019-03-11T06:25:16.789Z,57
2019-03-11T06:26:16.710Z,57.5
2019-03-11T06:27:16.605Z,57.5
2019-03-11T06:28:16.540Z,57.6
2019-03-11T06:29:16.438Z,58.3
2019-03-11T06:30:16.410Z,58
2019-03-11T06:31:16.307Z,58.2
2019-03-11T06:32:16.196Z,58.1
2019-03-11T06:33:16.086Z,58.2
2019-03-11T06:34:16.509Z,58.3
2019-03-11T06:35:16.395Z,58.4
2019-03-11T06:36:16.331Z,58.7
2019-03-11T06:37:16.253Z,59
2019-03-11T06:38:16.140Z,59
2019-03-11T06:39:16.060Z,59.2
2019-03-11T06:40:15.968Z,59.1
2019-03-11T06:41:15.868Z,59.2
2019-03-11T06:42:15.767Z,59.6
2019-03-11T06:43:15.653Z,59.7
2019-03-11T06:44:15.987Z,59.8
2019-03-11T06:45:19.399Z,60.1
2019-03-11T06:46:19.299Z,61.1
2019-03-11T06:47:19.211Z,62
2019-03-11T06:48:19.116Z,62.8
2019-03-11T06:49:19.062Z,62.9
2019-03-11T06:50:18.955Z,63
2019-03-11T06:51:18.891Z,63.4
2019-03-11T06:52:18.769Z,63.8
2019-03-11T06:53:18.651Z,64.2
2019-03-11T06:54:18.976Z,65.6
2019-03-11T06:55:18.889Z,67.3
2019-03-11T06:56:18.800Z,68.4
2019-03-11T06:57:18.700Z,68.6
2019-03-11T06:58:18.602Z,68.9
2019-03-11T06:59:18.519Z,69.3
2019-03-11T07:00:18.463Z,69.2
2019-03-11T07:01:18.374Z,69.2
2019-03-11T07:02:18.337Z,69.6
2019-03-11T07:03:18.237Z,70
2019-03-11T07:04:18.571Z,70.4
2019-03-11T07:05:21.743Z,72
2019-03-11T07:06:21.639Z,73.1
2019-03-11T07:07:21.602Z,74.1
2019-03-11T07:08:21.519Z,75.1
2019-03-11T07:09:21.836Z,75.1
2019-03-11T07:10:21.978Z,75
2019-03-11T07:11:21.886Z,74.2
2019-03-11T07:12:21.775Z,74
2019-03-11T07:13:21.667Z,74.1
2019-03-11T07:14:21.989Z,73.6
2019-03-11T07:15:21.884Z,73.2
2019-03-11T07:16:21.805Z,72.8
2019-03-11T07:17:21.757Z,72.8
2019-03-11T07:18:21.665Z,73.3
2019-03-11T07:19:21.552Z,72.1
2019-03-11T07:20:21.465Z,72.1
2019-03-11T07:21:21.379Z,71.4
2019-03-11T07:22:21.273Z,71.2
2019-03-11T07:23:21.150Z,71.1
2019-03-11T07:24:21.506Z,71.6
2019-03-11T07:25:21.405Z,72.1
2019-03-11T07:26:21.319Z,72.5
2019-03-11T07:27:21.197Z,73.4
2019-03-11T07:28:21.111Z,74.1
2019-03-11T07:29:21.017Z,74.2
2019-03-11T07:30:20.903Z,74
2019-03-11T07:31:20.835Z,74
2019-03-11T07:32:20.735Z,74.3
2019-03-11T07:33:20.706Z,74.4
2019-03-11T07:34:21.205Z,73.8
2019-03-11T07:35:21.083Z,73.7
2019-03-11T07:36:20.973Z,74.2
2019-03-11T07:37:21.332Z,73.7
2019-03-11T07:38:21.610Z,73.3
2019-03-11T07:39:21.511Z,72.7
2019-03-11T07:40:31.057Z,72.4
2019-03-11T07:41:30.985Z,72.9
2019-03-11T07:42:30.903Z,72.7
2019-03-11T07:43:30.799Z,72.7
2019-03-11T07:44:31.129Z,72.1
2019-03-11T07:45:31.039Z,71.9
2019-03-11T07:46:30.925Z,71.4
2019-03-11T07:47:30.922Z,71
2019-03-11T07:48:30.823Z,71.1
2019-03-11T07:49:30.711Z,71.2
2019-03-11T07:50:30.665Z,70.7
2019-03-11T07:51:30.568Z,70
2019-03-11T07:52:30.455Z,69.1
2019-03-11T07:53:30.381Z,69.3
2019-03-11T07:54:36.698Z,68.9
2019-03-11T07:55:36.637Z,69.3
2019-03-11T07:56:36.531Z,69.3
2019-03-11T07:57:36.425Z,68.9
2019-03-11T07:58:36.361Z,68.5
2019-03-11T07:59:36.270Z,68.3
2019-03-11T08:00:36.162Z,67.6
2019-03-11T08:01:36.054Z,66.8
2019-03-11T08:02:35.961Z,66.2
2019-03-11T08:03:35.854Z,66.8
2019-03-11T08:04:36.225Z,67.5
2019-03-11T08:05:36.119Z,67.5
2019-03-11T08:06:36.001Z,66.6
2019-03-11T08:07:35.919Z,66.9
2019-03-11T08:08:36.489Z,66.8
2019-03-11T08:09:39.174Z,66.3
2019-03-11T08:10:39.158Z,66.3
2019-03-11T08:11:39.107Z,65.8
2019-03-11T08:12:39.013Z,65.5
2019-03-11T08:13:38.909Z,65.5
2019-03-11T08:14:39.244Z,65.7
2019-03-11T08:15:39.130Z,65.8
2019-03-11T08:16:39.037Z,64.9
2019-03-11T08:17:38.963Z,64.3
2019-03-11T08:24:37.712Z,62
2019-03-11T08:25:37.632Z,62.7
2019-03-11T08:26:37.537Z,63.4
2019-03-11T08:27:37.441Z,63.7
2019-03-11T08:28:37.330Z,63.3
2019-03-11T08:29:37.227Z,64.1
2019-03-11T08:30:37.171Z,64.5
2019-03-11T08:31:37.058Z,64.7
2019-03-11T08:32:36.958Z,65.2
2019-03-11T08:33:36.835Z,65.1
2019-03-11T08:34:37.198Z,65.9
2019-03-11T08:35:37.117Z,66.3
2019-03-11T08:36:37.024Z,66.8
2019-03-11T08:37:36.919Z,66.6
2019-03-11T08:38:36.812Z,67.4
2019-03-11T08:39:36.705Z,67.3
2019-03-11T08:40:36.636Z,67.2
2019-03-11T08:41:36.548Z,67.6
2019-03-11T08:42:36.467Z,67.5
2019-03-11T08:43:36.458Z,68.1
2019-03-11T08:44:36.820Z,68.7
2019-03-11T08:45:36.730Z,68.7
2019-03-11T08:46:36.701Z,68.8
2019-03-11T08:47:36.626Z,69
2019-03-11T08:48:36.523Z,69.2
2019-03-11T08:49:36.426Z,69
2019-03-11T08:50:36.336Z,69
2019-03-11T08:51:36.319Z,69.6
2019-03-11T08:52:36.219Z,69.4
2019-03-11T08:53:36.098Z,69.5
2019-03-11T08:54:36.431Z,69.3
2019-03-11T08:55:36.320Z,69.4
2019-03-11T08:56:36.208Z,70
2019-03-11T08:57:36.119Z,76.4
2019-03-11T08:58:36.002Z,80.3
2019-03-11T08:59:35.916Z,81.6
2019-03-11T09:00:35.906Z,83
2019-03-11T09:01:35.854Z,83.3
2019-03-11T09:02:35.758Z,84.1
2019-03-11T09:03:35.672Z,84.9
2019-03-11T09:04:36.000Z,85.6
2019-03-11T09:05:35.923Z,86
2019-03-11T09:14:34.186Z,86.3
2019-03-11T09:15:34.088Z,86.8
2019-03-11T09:16:33.995Z,86.5
2019-03-11T09:17:33.895Z,85.9
2019-03-11T09:18:34.688Z,86.7
2019-03-11T09:19:34.588Z,86.9
2019-03-11T09:20:34.492Z,87.5
2019-03-11T09:21:34.396Z,88.1
2019-03-11T09:22:34.290Z,87.9
2019-03-11T09:23:34.222Z,88.2
2019-03-11T09:24:34.595Z,88.1
2019-03-11T09:25:34.506Z,88.1
2019-03-11T09:26:34.418Z,89.1
2019-03-11T09:27:34.314Z,89.5
2019-03-11T09:28:34.863Z,89
2019-03-11T09:29:35.170Z,88.6
2019-03-11T09:30:35.130Z,88.6
2019-03-11T09:31:35.025Z,89.4
2019-03-11T09:32:34.934Z,89.2
2019-03-11T09:33:34.824Z,88.7
2019-03-11T09:34:35.172Z,88.5
2019-03-11T09:35:35.065Z,88.5
2019-03-11T09:36:34.954Z,88.9
2019-03-11T09:37:34.850Z,87.4
2019-03-11T09:38:34.727Z,87
2019-03-11T09:39:34.642Z,86.9
2019-03-11T09:40:34.530Z,87.1
2019-03-11T09:41:34.414Z,87.1
2019-03-11T09:42:34.311Z,86.9
2019-03-11T09:43:34.213Z,87.8
2019-03-11T09:44:34.557Z,87.3
2019-03-11T10:04:53.973Z,79.2
2019-03-11T10:05:53.942Z,79.7
2019-03-11T10:06:53.830Z,79.8
2019-03-11T10:07:54.342Z,79.3
2019-03-11T10:08:54.505Z,80
2019-03-11T10:09:54.439Z,80.2
2019-03-11T10:10:54.345Z,81.3
2019-03-11T10:11:54.236Z,80.8
2019-03-11T10:12:54.153Z,79.8
2019-03-11T10:13:54.037Z,79.2
2019-03-11T10:14:54.403Z,79.1
2019-03-11T10:15:54.325Z,79.2
2019-03-11T10:16:54.243Z,78.5
2019-03-11T10:17:54.185Z,78.7
2019-03-11T10:18:54.084Z,78.2
2019-03-11T10:19:54.048Z,78
2019-03-11T10:20:53.964Z,78.9
2019-03-11T10:21:53.855Z,77.1
2019-03-11T10:22:53.753Z,77.6
2019-03-11T10:23:53.694Z,76.5
2019-03-11T10:24:54.109Z,77.3
2019-03-11T10:25:54.030Z,78.3
2019-03-11T10:26:53.941Z,77.8
2019-03-11T10:27:53.823Z,77.8
2019-03-11T10:28:53.729Z,78.1
2019-03-11T10:29:53.629Z,76.5
2019-03-11T10:30:53.547Z,77.6
2019-03-11T10:31:53.451Z,77.2
2019-03-11T10:32:53.362Z,77.9
2019-03-11T10:33:53.247Z,77.8
2019-03-11T10:34:53.565Z,77.2
2019-03-11T10:35:53.442Z,76
2019-03-11T10:36:53.413Z,76.4
2019-03-11T10:37:53.329Z,78.5
2019-03-11T10:38:53.230Z,78.6
2019-03-11T10:39:53.127Z,77.8
2019-03-11T10:40:53.019Z,76.8
2019-03-11T10:41:52.897Z,75.9
2019-03-11T10:42:52.821Z,76.3
2019-03-11T10:43:52.737Z,76.5
2019-03-11T10:44:53.060Z,75.7
2019-03-11T10:45:52.954Z,75.8
2019-03-11T10:54:51.642Z,72.6
2019-03-11T10:55:51.527Z,72.7
2019-03-11T10:56:51.417Z,73.9
2019-03-11T10:57:51.305Z,74.9
2019-03-11T10:58:51.221Z,75
2019-03-11T10:59:51.228Z,75.5
2019-03-11T11:00:51.138Z,75.1
2019-03-11T11:01:51.049Z,74.2
2019-03-11T11:02:50.976Z,74.7
2019-03-11T11:03:50.889Z,75
2019-03-11T11:04:51.219Z,74.9
2019-03-11T11:05:51.093Z,75.2
2019-03-11T11:06:51.019Z,75.8
2019-03-11T11:07:50.909Z,75.1
2019-03-11T11:08:50.831Z,74.5
2019-03-11T11:09:50.735Z,74.9
2019-03-11T11:10:50.645Z,74.6
2019-03-11T11:11:50.547Z,75.3
2019-03-11T11:12:50.451Z,75.8
2019-03-11T11:13:50.363Z,74.5
2019-03-11T11:14:50.729Z,75.3
2019-03-11T11:15:50.613Z,75.1
2019-03-11T11:16:50.498Z,74.7
2019-03-11T11:17:50.401Z,74.6
2019-03-11T11:18:50.319Z,74.7
2019-03-11T11:19:50.225Z,75.1
2019-03-11T11:20:50.124Z,75
2019-03-11T11:21:50.036Z,75.4
2019-03-11T11:22:49.961Z,76.1
2019-03-11T11:23:49.894Z,75.4
2019-03-11T11:24:50.215Z,75.9
2019-03-11T11:25:50.147Z,75.3
2019-03-11T11:26:50.061Z,75.6
2019-03-11T11:27:49.964Z,75.2
2019-03-11T11:28:49.875Z,75.8
2019-03-11T11:29:49.807Z,75.4
2019-03-11T11:30:49.705Z,75.8
2019-03-11T11:31:49.615Z,74.3
2019-03-11T11:32:49.505Z,74.3
2019-03-11T11:33:49.404Z,75.1
2019-03-11T11:34:49.749Z,75.3
2019-03-11T11:35:49.649Z,74.5
2019-03-11T11:36:49.590Z,74.5
2019-03-11T11:37:49.491Z,74.5
2019-03-11T11:38:49.391Z,74.1
2019-03-11T11:39:49.278Z,74.1
2019-03-11T11:40:49.181Z,73
2019-03-11T11:41:49.067Z,74.2
2019-03-11T11:42:48.953Z,73.8
2019-03-11T11:43:48.863Z,74.4
2019-03-11T11:44:49.182Z,74.5
2019-03-11T11:45:49.102Z,73.8
2019-03-11T11:46:48.987Z,73.4
2019-03-11T11:47:48.869Z,73.9
2019-03-11T11:48:48.753Z,74.5
2019-03-11T11:49:48.687Z,74.6
2019-03-11T11:50:48.601Z,74.7
2019-03-11T11:51:48.487Z,74.6
2019-03-11T11:52:48.384Z,74.1
2019-03-11T11:53:48.313Z,74.2
2019-03-11T11:54:48.628Z,73.1
2019-03-11T11:55:58.777Z,73.2
2019-03-11T11:56:58.679Z,72.4
2019-03-11T11:57:58.584Z,73.5
2019-03-11T11:58:58.490Z,73.3
2019-03-11T11:59:58.388Z,72.6
2019-03-11T12:00:58.354Z,72.6
2019-03-11T12:02:04.922Z,72.4
2019-03-11T12:03:04.875Z,71.6
2019-03-11T12:04:04.766Z,72.5
2019-03-11T12:05:05.114Z,71.9
2019-03-11T12:06:05.034Z,71.5
2019-03-11T12:07:04.914Z,72.5
2019-03-11T12:08:04.842Z,70.2
2019-03-11T12:09:04.728Z,70.5
2019-03-11T12:10:04.628Z,71.8
2019-03-11T12:11:04.516Z,71.5
2019-03-11T12:12:10.072Z,72.3
2019-03-11T12:13:09.992Z,72.1
2019-03-11T12:14:09.892Z,71.6
2019-03-11T12:15:10.218Z,71.7
2019-03-11T12:16:10.119Z,71.9
2019-03-11T12:17:10.034Z,72
2019-03-11T12:18:09.936Z,72.5
2019-03-11T12:19:09.853Z,72.4
2019-03-11T12:20:09.762Z,72.1
2019-03-11T12:21:09.681Z,73.5
2019-03-11T12:22:09.612Z,73.1
2019-03-11T12:23:09.561Z,73.4
2019-03-11T12:24:09.506Z,74.3
2019-03-11T12:25:09.814Z,74.6
2019-03-11T12:26:09.778Z,74.2
2019-03-11T12:27:09.705Z,74.7
2019-03-11T12:28:09.594Z,74
2019-03-11T12:29:09.484Z,73.8
2019-03-11T12:30:09.393Z,74.1
2019-03-11T12:31:09.299Z,74.4
2019-03-11T12:32:09.214Z,73.8
2019-03-11T12:33:09.107Z,72.8
2019-03-11T12:34:09.068Z,73.2
2019-03-11T12:35:09.488Z,73.5
2019-03-11T12:36:09.386Z,72.8
2019-03-11T12:37:09.304Z,71.4
2019-03-11T12:45:07.810Z,68.4
2019-03-11T12:46:07.691Z,69.8
2019-03-11T12:47:07.610Z,70.7
2019-03-11T12:48:07.735Z,70.4
2019-03-11T12:49:07.656Z,70.4
2019-03-11T12:50:07.532Z,71.8
2019-03-11T12:51:07.420Z,71
2019-03-11T12:52:07.304Z,71.2
2019-03-11T12:53:07.234Z,71
2019-03-11T12:54:07.124Z,70.1
2019-03-11T12:55:07.472Z,69.7
2019-03-11T12:56:07.378Z,70.3
2019-03-11T12:57:07.280Z,70.9
2019-03-11T12:58:07.199Z,70.8
2019-03-11T12:59:07.100Z,71.6
2019-03-11T13:00:07.040Z,71.9
2019-03-11T13:01:06.954Z,72.2
2019-03-11T13:02:06.904Z,71.8
2019-03-11T13:03:06.809Z,72.7
2019-03-11T13:04:06.724Z,72.4
2019-03-11T13:05:07.117Z,73.4
2019-03-11T13:06:07.032Z,72.5
2019-03-11T13:15:05.260Z,68.1
2019-03-11T13:16:05.218Z,69.4
2019-03-11T13:17:05.121Z,69.3
2019-03-11T13:18:05.041Z,68.3
2019-03-11T13:19:14.282Z,67.6
2019-03-11T13:20:14.202Z,68.1
2019-03-11T13:21:14.101Z,67.3
2019-03-11T13:22:13.985Z,65.1
2019-03-11T13:23:13.892Z,63.8
2019-03-11T13:24:13.797Z,64.5
2019-03-11T13:25:14.150Z,65
2019-03-11T13:26:14.073Z,65.6
2019-03-11T13:27:13.985Z,64.3
2019-03-11T13:28:13.892Z,64
2019-03-11T13:29:13.807Z,64
2019-03-11T13:30:13.724Z,63.3
2019-03-11T13:31:13.653Z,63.5
2019-03-11T13:32:13.595Z,63.7
2019-03-11T13:33:13.512Z,62.7
2019-03-11T13:34:13.446Z,63.5
2019-03-11T13:35:13.786Z,64.5
2019-03-11T13:36:13.735Z,63.4
2019-03-11T13:37:13.634Z,63.4
2019-03-11T13:38:13.550Z,63.6
2019-03-11T13:39:13.441Z,64.3
2019-03-11T13:40:13.330Z,64.7
2019-03-11T13:41:13.241Z,65.4
2019-03-11T13:42:13.135Z,65.5
2019-03-11T13:43:13.033Z,64.8
2019-03-11T13:44:12.931Z,65.5
2019-03-11T13:45:13.244Z,65.2
2019-03-11T13:46:13.146Z,65.9
2019-03-11T13:55:11.509Z,62.9
2019-03-11T13:56:11.426Z,64
2019-03-11T13:57:11.340Z,64.4
2019-03-11T13:58:11.227Z,64
2019-03-11T13:59:11.135Z,63.7
2019-03-11T14:00:11.042Z,63.3
2019-03-11T14:01:10.939Z,63.4
2019-03-11T14:02:10.890Z,64
2019-03-11T14:03:10.802Z,63.9
2019-03-11T14:04:10.707Z,64.3
2019-03-11T14:05:11.838Z,64.8
2019-03-11T14:06:11.764Z,64.7
2019-03-11T14:07:11.692Z,65.3
2019-03-11T14:08:11.612Z,64
2019-03-11T14:09:11.499Z,64
2019-03-11T14:10:11.399Z,63.8
2019-03-11T14:11:11.303Z,63.6
2019-03-11T14:12:11.191Z,64.1
2019-03-11T14:13:11.155Z,63.9
2019-03-11T14:14:11.098Z,64.1
2019-03-11T14:15:11.414Z,63.5
2019-03-11T14:16:11.304Z,64.9
2019-03-11T14:17:11.200Z,65.5
2019-03-11T14:18:11.105Z,65.2
2019-03-11T14:19:10.985Z,65.6
2019-03-11T14:20:10.871Z,64.8
2019-03-11T14:21:10.771Z,64.9
2019-03-11T14:22:10.680Z,65
2019-03-11T14:23:10.593Z,65.3
2019-03-11T14:24:10.575Z,65.2
2019-03-11T14:25:11.091Z,65.2
2019-03-11T14:26:10.996Z,65.3
2019-03-11T14:27:10.887Z,65.4
2019-03-11T14:28:10.815Z,66
2019-03-11T14:29:10.733Z,67
2019-03-11T14:30:10.639Z,66.9
2019-03-11T14:31:10.525Z,66.7
2019-03-11T14:32:11.222Z,66.1
2019-03-11T14:33:11.143Z,66.5
2019-03-11T14:34:11.034Z,66.8
2019-03-11T14:35:11.389Z,66.5
2019-03-11T14:36:11.279Z,66.8
2019-03-11T14:37:11.207Z,67.1
2019-03-11T14:38:11.095Z,67.1
2019-03-11T14:39:10.989Z,66.8
2019-03-11T14:40:10.881Z,66.4
2019-03-11T14:41:10.771Z,66.8
2019-03-11T14:42:10.665Z,66.3
2019-03-11T14:43:10.613Z,66.5
2019-03-11T14:44:10.497Z,66.7
2019-03-11T14:45:10.941Z,67.2
2019-03-11T14:46:10.862Z,68.6
2019-03-11T14:47:10.800Z,67
2019-03-11T14:48:10.750Z,67.3
2019-03-11T14:49:10.668Z,67.6
2019-03-11T14:50:10.585Z,67.5
2019-03-11T14:51:10.508Z,67.4
2019-03-11T14:52:10.410Z,67.6
2019-03-11T14:53:10.317Z,67.2
2019-03-11T14:54:10.221Z,67.4
2019-03-11T14:55:10.595Z,67.2
2019-03-11T14:56:10.493Z,67.5
2019-03-11T14:57:10.416Z,68.1
2019-03-11T14:58:10.333Z,68.3
2019-03-11T14:59:10.224Z,67.9
2019-03-11T15:00:10.140Z,68.1
2019-03-11T15:01:10.021Z,67.8
2019-03-11T15:02:09.921Z,67.9
2019-03-11T15:03:09.817Z,68.5
2019-03-11T15:04:09.709Z,68.2
2019-03-11T15:05:10.039Z,68.1
2019-03-11T15:06:09.939Z,68.4
2019-03-11T15:07:09.833Z,68.2
2019-03-11T15:08:09.739Z,68.4
2019-03-11T15:09:12.315Z,68.5
2019-03-11T15:10:12.291Z,67.8
2019-03-11T15:11:12.198Z,68
2019-03-11T15:12:12.122Z,68
2019-03-11T15:13:12.088Z,68.5
2019-03-11T15:14:11.971Z,68.3
2019-03-11T15:15:12.305Z,68.8
2019-03-11T15:16:12.224Z,68.9
2019-03-11T15:17:12.112Z,68.6
2019-03-11T15:18:12.033Z,68.2
2019-03-11T15:19:11.948Z,68.3
2019-03-11T15:20:14.891Z,69
2019-03-11T15:21:16.851Z,67
2019-03-11T15:22:16.725Z,67.7
2019-03-11T15:23:21.638Z,70.4
2019-03-11T15:24:21.560Z,71.1
2019-03-11T15:25:21.897Z,70.5
2019-03-11T15:26:26.278Z,68.7
2019-03-11T15:55:38.577Z,63
2019-03-11T15:56:38.575Z,64.1
2019-03-11T15:57:39.881Z,64.3
2019-03-11T15:58:39.801Z,65.1
2019-03-11T15:59:39.714Z,65.4
2019-03-11T16:00:39.626Z,65.5
2019-03-11T16:01:39.522Z,65.6
2019-03-11T16:02:42.016Z,65.8
2019-03-11T16:03:41.916Z,66.6
2019-03-11T16:04:41.821Z,66.6